Time;durP1;ratioP1;P1;durP2;ratioP2;P2;SDS_P1;SDS_P2;PMS_P1;PMS_P2;Temp;Humidity;BMP_temperature;BMP_pressure;BME280_temperature;BME280_humidity;BME280_pressure;Samples;Min_cycle;Max_cycle;Signal;HPM_P1;HPM_P2
2024/03/15 00:00:14;;;;;;;7.57;4.93;;;10.50;99.90;;;;;;5019594;28;20105;-73
2024/03/15 00:02:40;;;;;;;7.63;5.20;;;10.50;99.90;;;;;;5023800;28;20029;-73
2024/03/15 00:05:05;;;;;;;6.53;4.47;;;10.50;99.90;;;;;;5024567;28;20502;-73
2024/03/15 00:07:31;;;;;;;10.90;5.32;;;10.50;99.90;;;;;;5024352;28;20029;-74
2024/03/15 00:09:57;;;;;;;;;;;10.50;99.90;;;;;;5019755;28;20041;-74
2024/03/15 00:12:23;;;;;;;6.90;4.63;;;10.40;99.90;;;;;;5025835;28;20466;-74
2024/03/15 00:14:48;;;;;;;;;;;10.40;99.90;;;;;;5030330;28;20380;-74
2024/03/15 00:17:14;;;;;;;6.32;4.97;;;10.40;99.90;;;;;;5030220;28;19943;-74
2024/03/15 00:19:40;;;;;;;9.52;4.43;;;10.40;99.90;;;;;;5029847;28;20061;-74
2024/03/15 00:22:09;;;;;;;5.88;4.32;;;10.50;99.90;;;;;;5028418;28;20056;-74
2024/03/15 00:24:36;;;;;;;5.53;4.38;;;10.50;99.90;;;;;;5025044;28;20353;-74
2024/03/15 00:27:01;;;;;;;6.60;4.38;;;10.50;99.90;;;;;;5029827;28;20048;-73
2024/03/15 00:29:30;;;;;;;5.25;4.65;;;10.60;99.90;;;;;;5027718;28;20427;-73
2024/03/15 00:31:56;;;;;;;6.35;4.53;;;10.60;99.90;;;;;;5030892;28;20029;-73
2024/03/15 00:34:22;;;;;;;10.68;6.05;;;10.60;99.90;;;;;;5031376;28;20088;-73
2024/03/15 00:36:48;;;;;;;7.93;4.03;;;10.70;99.90;;;;;;5030392;28;20574;-73
2024/03/15 00:39:14;;;;;;;9.15;5.70;;;10.60;99.90;;;;;;5030858;28;20026;-73
2024/03/15 00:41:40;;;;;;;10.60;4.40;;;10.70;99.90;;;;;;5029822;28;20041;-73
2024/03/15 00:44:06;;;;;;;6.82;4.40;;;10.60;99.90;;;;;;5030633;28;20025;-74
2024/03/15 00:46:32;;;;;;;5.03;4.15;;;10.70;99.90;;;;;;5030971;28;20033;-74
2024/03/15 00:48:57;;;;;;;7.93;6.45;;;10.80;99.90;;;;;;5030343;28;20031;-74
2024/03/15 00:51:23;;;;;;;10.45;5.85;;;10.80;99.90;;;;;;5030991;28;20171;-74
2024/03/15 00:53:50;;;;;;;;;;;10.70;99.90;;;;;;5029651;28;20395;-74
2024/03/15 00:56:16;;;;;;;;;;;10.70;99.90;;;;;;5028801;28;19932;-74
2024/03/15 00:58:41;;;;;;;8.55;5.63;;;10.70;99.90;;;;;;5030664;28;20355;-74
2024/03/15 01:01:07;;;;;;;;;;;10.70;99.90;;;;;;5029921;28;20049;-74
2024/03/15 01:03:32;;;;;;;9.05;4.53;;;10.60;99.90;;;;;;5030662;28;19905;-74
2024/03/15 01:06:01;;;;;;;;;;;10.70;99.90;;;;;;5030370;28;20033;-74
2024/03/15 01:08:28;;;;;;;6.00;4.00;;;10.60;99.90;;;;;;5029909;28;19913;-74
2024/03/15 01:10:53;;;;;;;6.82;4.60;;;10.60;99.90;;;;;;5028657;28;20044;-74
2024/03/15 01:13:19;;;;;;;;;;;10.60;99.90;;;;;;5030155;28;20021;-73
2024/03/15 01:15:45;;;;;;;5.80;4.05;;;10.70;99.90;;;;;;5030061;28;20333;-73
2024/03/15 01:18:12;;;;;;;5.63;4.25;;;10.80;99.90;;;;;;5030258;28;20240;-73
2024/03/15 01:20:38;;;;;;;5.47;3.72;;;10.70;99.90;;;;;;5028867;28;20032;-73
2024/03/15 01:23:03;;;;;;;;;;;10.80;99.90;;;;;;5030002;28;20022;-73
2024/03/15 01:25:35;;;;;;;6.50;4.75;;;10.80;99.90;;;;;;5028236;28;19909;-74
2024/03/15 01:28:02;;;;;;;8.63;5.55;;;10.70;99.90;;;;;;5029627;28;20030;-74
2024/03/15 01:30:27;;;;;;;5.72;5.10;;;10.80;99.90;;;;;;5027775;28;20609;-74
2024/03/15 01:32:53;;;;;;;;;;;10.80;99.90;;;;;;5030261;28;20034;-74
2024/03/15 01:35:18;;;;;;;8.75;4.15;;;10.70;99.90;;;;;;5029272;28;19935;-74
2024/03/15 01:37:43;;;;;;;4.78;3.75;;;10.70;99.90;;;;;;5029429;28;20029;-73
2024/03/15 01:40:12;;;;;;;4.30;3.22;;;10.70;99.90;;;;;;5028687;28;20026;-73
2024/03/15 01:42:37;;;;;;;4.78;3.53;;;10.70;99.90;;;;;;5024261;28;20526;-73
2024/03/15 01:45:06;;;;;;;6.72;3.17;;;10.70;99.90;;;;;;5030047;28;20017;-73
2024/03/15 01:47:32;;;;;;;5.63;4.47;;;10.60;99.90;;;;;;5029578;28;20487;-73
2024/03/15 01:49:58;;;;;;;4.03;3.53;;;10.70;99.90;;;;;;5029636;28;20021;-73
2024/03/15 01:52:25;;;;;;;5.28;3.40;;;10.70;99.90;;;;;;5029111;28;20116;-73
2024/03/15 01:54:51;;;;;;;6.35;4.38;;;10.70;99.90;;;;;;5029412;28;20099;-73
2024/03/15 01:57:18;;;;;;;6.43;4.50;;;10.70;99.90;;;;;;5028000;28;20565;-74
2024/03/15 01:59:47;;;;;;;4.78;3.55;;;10.70;99.90;;;;;;5028167;28;20034;-73
2024/03/15 02:02:13;;;;;;;9.10;4.93;;;10.70;99.90;;;;;;5029199;28;20060;-73
2024/03/15 02:04:40;;;;;;;6.03;3.60;;;10.70;99.90;;;;;;5029264;28;20040;-73
2024/03/15 02:07:06;;;;;;;15.10;11.02;;;10.60;99.90;;;;;;5030222;28;20025;-73
2024/03/15 02:09:32;;;;;;;15.60;10.57;;;10.70;99.90;;;;;;5029470;28;20041;-74
2024/03/15 02:11:57;;;;;;;15.55;10.32;;;10.70;99.90;;;;;;5028839;28;20076;-74
2024/03/15 02:14:23;;;;;;;10.02;7.30;;;10.70;99.90;;;;;;5027313;28;20099;-73
2024/03/15 02:16:49;;;;;;;9.25;7.32;;;10.80;99.90;;;;;;5028833;28;20065;-73
2024/03/15 02:19:15;;;;;;;;;;;10.80;99.90;;;;;;5029580;28;20052;-73
2024/03/15 02:21:41;;;;;;;9.23;6.03;;;10.80;99.90;;;;;;5028238;28;19944;-73
2024/03/15 02:24:07;;;;;;;4.93;3.40;;;10.80;99.90;;;;;;5027867;28;20144;-73
2024/03/15 02:26:33;;;;;;;7.20;5.00;;;10.90;99.90;;;;;;5027737;28;20427;-74
2024/03/15 02:28:59;;;;;;;8.88;4.50;;;10.90;99.90;;;;;;5028490;28;20384;-73
2024/03/15 02:31:25;;;;;;;9.45;4.35;;;10.90;99.90;;;;;;5028578;28;20093;-73
2024/03/15 02:33:51;;;;;;;5.90;4.00;;;11.00;99.90;;;;;;5026687;28;20021;-73
2024/03/15 02:36:16;;;;;;;4.90;3.28;;;11.00;99.90;;;;;;5028135;28;20024;-73
2024/03/15 02:38:42;;;;;;;10.05;4.45;;;11.00;99.90;;;;;;5026131;28;20022;-73
2024/03/15 02:41:13;;;;;;;;;;;11.10;99.90;;;;;;5029180;28;20025;-74
2024/03/15 02:43:42;;;;;;;8.40;4.28;;;11.10;99.90;;;;;;5028414;28;19945;-73
2024/03/15 02:46:08;;;;;;;6.95;5.10;;;11.10;99.90;;;;;;5028749;28;20057;-73
2024/03/15 02:48:38;;;;;;;10.55;6.50;;;11.10;99.90;;;;;;5026835;28;20057;-74
2024/03/15 02:51:05;;;;;;;9.85;4.68;;;11.10;99.90;;;;;;5026090;28;20032;-74
2024/03/15 02:53:30;;;;;;;7.13;4.47;;;11.10;99.90;;;;;;5028800;28;20036;-74
2024/03/15 02:55:56;;;;;;;7.75;5.50;;;11.10;99.90;;;;;;5026865;28;20026;-74
2024/03/15 02:58:22;;;;;;;6.13;5.15;;;11.10;99.90;;;;;;5027369;28;20025;-73
2024/03/15 03:00:47;;;;;;;;;;;11.20;99.90;;;;;;5026456;28;20500;-74
2024/03/15 03:03:13;;;;;;;7.32;4.07;;;11.20;99.90;;;;;;5027467;28;19909;-74
2024/03/15 03:05:41;;;;;;;;;;;11.20;99.90;;;;;;5010988;28;20057;-73
2024/03/15 03:08:07;;;;;;;6.88;4.15;;;11.20;99.90;;;;;;5028483;28;19905;-73
2024/03/15 03:10:32;;;;;;;;;;;11.20;99.90;;;;;;5028410;28;20029;-73
2024/03/15 03:13:01;;;;;;;8.63;5.30;;;11.30;99.90;;;;;;5026401;28;19917;-73
2024/03/15 03:15:26;;;;;;;5.57;4.45;;;11.30;99.90;;;;;;5027982;28;20464;-73
2024/03/15 03:17:52;;;;;;;;;;;11.40;99.90;;;;;;5027964;28;20120;-73
2024/03/15 03:20:20;;;;;;;10.13;5.07;;;11.40;99.90;;;;;;5027012;28;19909;-73
2024/03/15 03:22:48;;;;;;;7.15;4.82;;;11.40;99.90;;;;;;5028003;28;20033;-73
2024/03/15 03:25:14;;;;;;;7.43;5.85;;;11.50;99.90;;;;;;5027111;28;20049;-73
2024/03/15 03:27:40;;;;;;;5.13;4.38;;;11.60;99.90;;;;;;5027125;28;20454;-73
2024/03/15 03:30:06;;;;;;;;;;;11.60;99.90;;;;;;5028240;28;20108;-73
2024/03/15 03:32:32;;;;;;;5.65;4.65;;;11.70;99.90;;;;;;5027698;28;19996;-73
2024/03/15 03:34:57;;;;;;;;;;;11.70;99.90;;;;;;5027616;28;20116;-73
2024/03/15 03:37:23;;;;;;;9.68;6.53;;;11.70;99.90;;;;;;5025737;28;20003;-73
2024/03/15 03:39:48;;;;;;;;;;;11.80;99.90;;;;;;5027473;28;20115;-73
2024/03/15 03:42:14;;;;;;;6.45;4.88;;;11.70;99.90;;;;;;5027521;28;19909;-73
2024/03/15 03:44:41;;;;;;;6.28;4.50;;;11.70;99.90;;;;;;5027138;28;21185;-73
2024/03/15 03:47:09;;;;;;;10.43;5.70;;;11.70;99.90;;;;;;5027079;28;20022;-73
2024/03/15 03:49:34;;;;;;;8.15;5.43;;;11.70;99.90;;;;;;5027153;28;20033;-73
2024/03/15 03:52:00;;;;;;;8.38;4.70;;;11.70;99.90;;;;;;5024221;28;20025;-73
2024/03/15 03:54:25;;;;;;;5.07;4.57;;;11.70;99.90;;;;;;5027758;28;20017;-73
2024/03/15 03:56:50;;;;;;;;;;;11.60;99.90;;;;;;5025653;28;20186;-73
2024/03/15 03:59:16;;;;;;;8.88;5.32;;;11.60;99.90;;;;;;5028048;28;19913;-73
2024/03/15 04:01:42;;;;;;;;;;;11.50;99.90;;;;;;5027722;28;20041;-73
2024/03/15 04:04:07;;;;;;;8.48;5.68;;;11.50;99.90;;;;;;5026984;28;20363;-73
2024/03/15 04:06:33;;;;;;;;;;;11.40;99.90;;;;;;5027071;28;20026;-73
2024/03/15 04:08:58;;;;;;;9.88;5.68;;;11.40;99.90;;;;;;5026449;28;19913;-73
2024/03/15 04:11:24;;;;;;;;;;;11.30;99.90;;;;;;5025437;28;20558;-73
2024/03/15 04:13:52;;;;;;;11.80;6.18;;;11.30;99.90;;;;;;5025007;28;19913;-74
2024/03/15 04:16:18;;;;;;;8.40;5.85;;;11.20;99.90;;;;;;5025881;28;20471;-74
2024/03/15 04:18:44;;;;;;;13.27;5.90;;;11.20;99.90;;;;;;5027228;28;20105;-74
2024/03/15 04:21:10;;;;;;;7.68;5.78;;;11.10;99.90;;;;;;5026362;28;20112;-74
2024/03/15 04:23:37;;;;;;;8.70;5.50;;;11.10;99.90;;;;;;5027620;28;20036;-74
2024/03/15 04:26:02;;;;;;;8.57;5.22;;;11.10;99.90;;;;;;5027203;28;20067;-74
2024/03/15 04:28:28;;;;;;;7.35;5.38;;;11.00;99.90;;;;;;5026766;28;20029;-74
2024/03/15 04:30:57;;;;;;;11.43;5.57;;;10.90;99.90;;;;;;5025668;28;20761;-74
2024/03/15 04:33:23;;;;;;;8.15;6.18;;;10.90;99.90;;;;;;5024465;28;20071;-74
2024/03/15 04:35:50;;;;;;;8.23;5.15;;;10.90;99.90;;;;;;5025971;28;20030;-74
2024/03/15 04:38:16;;;;;;;7.80;5.65;;;10.80;99.90;;;;;;5027626;28;20022;-73
2024/03/15 04:40:41;;;;;;;13.05;5.35;;;10.90;99.90;;;;;;5026594;28;20391;-73
2024/03/15 04:43:07;;;;;;;;;;;10.80;99.90;;;;;;5027298;28;20114;-73
2024/03/15 04:45:33;;;;;;;6.65;5.03;;;10.80;99.90;;;;;;5026785;28;20356;-73
2024/03/15 04:48:00;;;;;;;7.88;5.35;;;10.80;99.90;;;;;;5026080;28;20064;-73
2024/03/15 04:50:26;;;;;;;5.65;4.65;;;10.80;99.90;;;;;;5025827;28;20041;-75
2024/03/15 04:52:53;;;;;;;9.45;5.35;;;10.80;99.90;;;;;;5027237;28;20032;-75
2024/03/15 04:55:20;;;;;;;12.30;6.13;;;10.80;99.90;;;;;;5025554;28;20025;-75
2024/03/15 04:57:47;;;;;;;6.03;4.65;;;10.80;99.90;;;;;;5026191;28;20044;-75
2024/03/15 05:00:18;;;;;;;8.50;5.03;;;10.90;99.90;;;;;;5027915;28;20483;-72
2024/03/15 05:02:50;;;;;;;6.00;5.28;;;10.90;99.90;;;;;;5029713;28;20112;-71
2024/03/15 05:05:15;;;;;;;9.80;5.85;;;11.00;99.90;;;;;;5029828;28;20028;-71
2024/03/15 05:07:42;;;;;;;9.57;6.15;;;10.90;99.90;;;;;;5030589;28;20029;-71
2024/03/15 05:10:11;;;;;;;9.10;5.72;;;11.00;99.90;;;;;;5029993;28;20652;-71
2024/03/15 05:12:38;;;;;;;9.07;4.88;;;10.90;99.90;;;;;;5029442;28;20091;-71
2024/03/15 05:15:04;;;;;;;8.57;4.97;;;10.90;99.90;;;;;;5027934;28;20403;-75
2024/03/15 05:17:30;;;;;;;10.88;7.50;;;10.90;99.90;;;;;;5028914;28;20029;-74
2024/03/15 05:19:55;;;;;;;;;;;10.80;99.90;;;;;;5030293;28;20022;-73
2024/03/15 05:22:23;;;;;;;13.75;6.13;;;10.80;99.90;;;;;;5029824;28;20425;-71
2024/03/15 05:24:49;;;;;;;10.18;6.03;;;10.80;99.90;;;;;;5029448;28;20562;-69
2024/03/15 05:27:14;;;;;;;8.98;5.75;;;10.70;99.90;;;;;;5029563;28;20142;-69
2024/03/15 05:29:40;;;;;;;;;;;10.80;99.90;;;;;;5029923;28;20032;-69
2024/03/15 05:32:05;;;;;;;10.00;5.80;;;10.80;99.90;;;;;;5028607;28;19910;-69
2024/03/15 05:34:31;;;;;;;;;;;10.80;99.90;;;;;;5029899;28;20032;-69
2024/03/15 05:36:58;;;;;;;9.10;5.00;;;10.80;99.90;;;;;;5029763;28;19916;-69
2024/03/15 05:39:23;;;;;;;8.82;5.28;;;10.80;99.90;;;;;;5029334;28;20036;-69
2024/03/15 05:41:49;;;;;;;9.30;6.05;;;10.80;99.90;;;;;;5029873;28;20029;-69
2024/03/15 05:44:14;;;;;;;11.95;6.22;;;10.70;99.90;;;;;;5029524;28;20112;-69
2024/03/15 05:46:40;;;;;;;;;;;10.70;99.90;;;;;;5029893;28;20484;-69
2024/03/15 05:49:05;;;;;;;8.18;5.05;;;10.60;99.90;;;;;;5029490;28;19909;-69
2024/03/15 05:51:32;;;;;;;9.52;5.85;;;10.50;99.90;;;;;;5029717;28;20025;-69
2024/03/15 05:53:58;;;;;;;10.50;5.40;;;10.50;99.90;;;;;;5029260;28;20140;-69
2024/03/15 05:56:23;;;;;;;8.20;5.57;;;10.40;99.90;;;;;;5028594;28;20496;-69
2024/03/15 05:58:50;;;;;;;;;;;10.40;99.90;;;;;;5030152;28;20038;-69
2024/03/15 06:01:15;;;;;;;9.73;5.47;;;10.40;99.90;;;;;;5029466;28;19940;-69
2024/03/15 06:03:41;;;;;;;6.55;5.32;;;10.40;99.90;;;;;;5029614;28;20057;-69
2024/03/15 06:06:08;;;;;;;;;;;10.40;99.90;;;;;;5029018;28;20030;-69
2024/03/15 06:08:37;;;;;;;6.38;4.70;;;10.40;99.90;;;;;;5027979;28;20276;-69
2024/03/15 06:11:03;;;;;;;8.45;5.50;;;10.40;99.90;;;;;;5027229;28;20038;-69
2024/03/15 06:13:29;;;;;;;5.50;4.40;;;10.40;99.90;;;;;;5028221;28;20037;-69
2024/03/15 06:15:55;;;;;;;;;;;10.40;99.90;;;;;;5029058;28;20029;-69
2024/03/15 06:18:20;;;;;;;7.18;5.22;;;10.40;99.90;;;;;;5027615;28;19909;-69
2024/03/15 06:20:46;;;;;;;12.88;5.30;;;10.40;99.90;;;;;;5026912;28;20048;-69
2024/03/15 06:23:11;;;;;;;;;;;10.40;99.90;;;;;;5028185;28;20531;-69
2024/03/15 06:25:37;;;;;;;5.60;4.80;;;10.50;99.90;;;;;;5028164;28;19909;-69
2024/03/15 06:28:13;;;;;;;;;;;10.50;99.90;;;;;;5029166;28;20026;-69
2024/03/15 06:30:46;;;;;;;12.82;4.82;;;10.60;99.90;;;;;;5028609;28;20015;-69
2024/03/15 06:33:13;;;;;;;7.68;5.07;;;10.70;99.90;;;;;;5028768;28;20097;-69
2024/03/15 06:35:39;;;;;;;7.30;5.43;;;10.80;99.90;;;;;;5026892;28;20392;-69
2024/03/15 06:38:09;;;;;;;;;;;10.80;99.90;;;;;;5028527;28;20021;-70
2024/03/15 06:43:35;;;;;;;7.35;4.90;;;10.90;99.90;;;;;;5028774;28;20518;-70
2024/03/15 06:46:08;;;;;;;9.68;6.53;;;11.00;99.90;;;;;;5028408;28;20364;-70
2024/03/15 06:48:44;;;;;;;12.00;5.78;;;11.10;99.90;;;;;;5028349;28;20064;-70
2024/03/15 06:53:54;;;;;;;9.20;5.57;;;11.20;99.90;;;;;;5027631;28;20045;-70
2024/03/15 06:56:20;;;;;;;;;;;11.30;99.90;;;;;;5029276;28;20025;-70
2024/03/15 06:58:45;;;;;;;9.02;5.72;;;11.40;99.90;;;;;;5028155;28;19950;-70
2024/03/15 07:01:14;;;;;;;9.38;5.55;;;11.50;99.90;;;;;;5026563;28;20025;-70
2024/03/15 07:03:39;;;;;;;11.68;6.40;;;11.60;99.90;;;;;;5026229;28;20086;-70
2024/03/15 07:06:05;;;;;;;10.57;5.20;;;11.60;99.90;;;;;;5026915;28;20026;-70
2024/03/15 07:08:32;;;;;;;12.40;5.40;;;11.70;99.90;;;;;;5026380;28;20086;-70
2024/03/15 07:10:57;;;;;;;7.20;5.43;;;11.80;99.90;;;;;;5027001;28;20065;-70
2024/03/15 07:13:23;;;;;;;8.60;5.85;;;11.90;99.90;;;;;;5027310;28;20495;-70
2024/03/15 07:15:49;;;;;;;6.35;4.75;;;12.00;99.90;;;;;;5026963;28;20041;-70
2024/03/15 07:18:15;;;;;;;6.30;5.18;;;12.20;99.90;;;;;;5026445;28;20104;-70
2024/03/15 07:20:41;;;;;;;11.10;5.72;;;12.30;99.90;;;;;;5026243;28;20160;-70
2024/03/15 07:23:07;;;;;;;11.63;6.00;;;12.40;99.90;;;;;;5027726;28;20033;-70
2024/03/15 07:25:34;;;;;;;11.25;6.35;;;12.50;99.90;;;;;;5027276;28;20034;-70
2024/03/15 07:28:00;;;;;;;9.27;6.57;;;12.60;99.90;;;;;;5026176;28;20693;-70
2024/03/15 07:30:25;;;;;;;10.98;7.05;;;12.60;99.90;;;;;;5028043;28;20029;-70
2024/03/15 07:32:54;;;;;;;12.45;6.13;;;12.70;99.90;;;;;;5027996;28;20025;-70
2024/03/15 07:35:21;;;;;;;9.90;5.63;;;12.80;99.90;;;;;;5026479;28;20029;-70
2024/03/15 07:37:47;;;;;;;7.35;5.80;;;12.80;99.90;;;;;;5027105;28;20029;-70
2024/03/15 07:40:13;;;;;;;10.43;5.30;;;12.90;99.90;;;;;;5025393;28;20021;-70
2024/03/15 07:42:39;;;;;;;13.60;6.93;;;13.00;99.90;;;;;;5027989;28;20026;-70
2024/03/15 07:45:05;;;;;;;9.07;5.30;;;13.00;99.90;;;;;;5027401;28;20037;-70
2024/03/15 07:47:30;;;;;;;;;;;13.10;99.90;;;;;;5026772;28;20029;-70
2024/03/15 07:49:56;;;;;;;16.83;6.88;;;13.20;99.90;;;;;;5026816;28;19912;-70
2024/03/15 07:52:22;;;;;;;9.02;5.13;;;13.30;99.90;;;;;;5026007;28;20021;-70
2024/03/15 07:54:48;;;;;;;12.73;5.28;;;13.40;99.90;;;;;;5026519;28;20056;-70
2024/03/15 07:57:13;;;;;;;11.40;5.20;;;13.40;99.90;;;;;;5028047;28;20053;-70
2024/03/15 07:59:40;;;;;;;11.52;6.00;;;13.40;99.90;;;;;;5027111;28;20424;-70
2024/03/15 08:02:06;;;;;;;12.57;5.40;;;13.50;99.90;;;;;;5026601;28;20488;-70
2024/03/15 08:04:31;;;;;;;12.70;5.70;;;13.60;99.90;;;;;;5025983;28;20049;-70
2024/03/15 08:06:57;;;;;;;11.60;5.13;;;13.70;99.90;;;;;;5009478;28;20384;-70
2024/03/15 08:09:26;;;;;;;6.43;4.72;;;13.80;99.90;;;;;;5026309;28;20587;-70
2024/03/15 08:11:52;;;;;;;9.23;4.38;;;13.90;99.90;;;;;;5026780;28;20053;-70
2024/03/15 08:14:18;;;;;;;5.63;3.83;;;14.00;99.90;;;;;;5026594;28;20034;-70
2024/03/15 08:16:44;;;;;;;6.38;4.57;;;14.10;99.90;;;;;;5027450;28;20080;-70
2024/03/15 08:19:10;;;;;;;5.68;3.65;;;14.20;99.90;;;;;;5027439;28;20108;-70
2024/03/15 08:21:39;;;;;;;8.50;4.80;;;14.40;99.90;;;;;;5026379;28;20124;-70
2024/03/15 08:24:05;;;;;;;6.70;4.25;;;14.50;99.90;;;;;;5024802;28;20030;-70
2024/03/15 08:26:32;;;;;;;9.60;4.82;;;14.60;99.90;;;;;;5027219;28;20029;-70
2024/03/15 08:28:58;;;;;;;9.20;5.20;;;14.70;99.90;;;;;;5025507;28;20037;-70
2024/03/15 08:31:24;;;;;;;5.50;4.07;;;14.80;99.90;;;;;;5026233;28;20026;-70
2024/03/15 08:33:50;;;;;;;9.20;3.90;;;14.90;99.90;;;;;;5029924;28;20037;-70
2024/03/15 08:36:15;;;;;;;4.82;4.20;;;15.00;99.90;;;;;;5029789;28;20033;-70
2024/03/15 08:38:41;;;;;;;4.85;3.60;;;15.00;99.90;;;;;;5030576;28;20026;-70
2024/03/15 08:41:07;;;;;;;5.70;3.40;;;15.00;99.90;;;;;;5030282;28;20033;-70
2024/03/15 08:43:33;;;;;;;7.72;4.47;;;15.10;99.90;;;;;;5030782;28;20467;-70
2024/03/15 08:45:59;;;;;;;7.25;4.72;;;15.20;99.90;;;;;;5030788;28;20041;-70
2024/03/15 08:48:26;;;;;;;6.38;3.78;;;15.20;99.90;;;;;;5030850;28;20028;-70
2024/03/15 08:50:52;;;;;;;8.13;4.55;;;15.20;99.90;;;;;;5029250;28;20495;-70
2024/03/15 08:53:17;;;;;;;7.28;3.78;;;15.20;99.90;;;;;;5029552;28;20029;-70
2024/03/15 08:55:43;;;;;;;8.63;3.90;;;15.20;99.90;;;;;;5030499;28;20035;-70
2024/03/15 08:58:10;;;;;;;5.78;4.30;;;15.20;99.90;;;;;;5030033;28;20112;-70
2024/03/15 09:00:38;;;;;;;11.32;4.95;;;15.10;99.90;;;;;;5030403;28;20040;-70
2024/03/15 09:03:05;;;;;;;7.32;4.35;;;15.20;99.90;;;;;;5030553;28;20036;-70
2024/03/15 09:05:31;;;;;;;9.27;4.18;;;15.20;99.90;;;;;;5030321;28;20021;-70
2024/03/15 09:07:57;;;;;;;8.98;4.40;;;15.20;99.90;;;;;;5029204;28;20034;-70
2024/03/15 09:10:23;;;;;;;11.77;4.35;;;15.30;99.90;;;;;;5030061;28;20170;-70
2024/03/15 09:12:49;;;;;;;5.88;4.68;;;15.40;99.90;;;;;;5029624;28;20507;-70
2024/03/15 09:15:16;;;;;;;7.82;4.22;;;15.50;99.90;;;;;;5030365;28;20034;-70
2024/03/15 09:17:41;;;;;;;6.47;3.97;;;15.70;99.90;;;;;;5028761;28;20099;-70
2024/03/15 09:22:42;;;;;;;6.82;4.03;;;15.90;99.80;;;;;;5029640;28;20051;-70
2024/03/15 09:25:18;;;;;;;5.50;4.00;;;15.90;99.50;;;;;;5028119;28;20025;-70
2024/03/15 09:27:45;;;;;;;5.53;4.03;;;15.90;99.70;;;;;;5029160;28;20026;-70
2024/03/15 09:30:18;;;;;;;7.57;3.38;;;15.90;99.70;;;;;;5029140;28;20034;-70
2024/03/15 09:32:44;;;;;;;6.45;4.05;;;16.00;99.60;;;;;;5029880;28;20022;-70
2024/03/15 09:35:12;;;;;;;7.25;4.15;;;16.00;99.40;;;;;;5029241;28;20045;-70
2024/03/15 09:37:46;;;;;;;6.32;3.28;;;16.10;99.20;;;;;;5029660;28;20112;-70
2024/03/15 09:40:14;;;;;;;10.55;3.95;;;16.20;99.20;;;;;;5029841;28;20030;-70
2024/03/15 09:42:43;;;;;;;6.60;3.38;;;16.30;99.20;;;;;;5028124;28;20515;-70
2024/03/15 09:45:16;;;;;;;4.85;3.30;;;16.40;98.90;;;;;;5029349;28;20037;-70
2024/03/15 09:47:43;;;;;;;8.50;4.95;;;16.40;98.70;;;;;;5028725;28;20025;-70
2024/03/15 09:50:16;;;;;;;10.07;4.07;;;16.50;98.70;;;;;;5028901;28;20045;-70
2024/03/15 09:52:42;;;;;;;4.47;4.03;;;16.60;98.70;;;;;;5029448;28;20388;-70
2024/03/15 09:55:13;;;;;;;8.27;5.57;;;16.60;98.60;;;;;;5029109;28;20029;-70
2024/03/15 09:57:42;;;;;;;7.55;4.57;;;16.50;98.20;;;;;;5027732;28;20040;-70
2024/03/15 10:00:16;;;;;;;6.13;3.67;;;16.50;98.50;;;;;;5028905;28;20030;-70
2024/03/15 10:02:44;;;;;;;8.65;4.10;;;16.50;98.60;;;;;;5026497;28;20138;-70
2024/03/15 10:05:12;;;;;;;4.85;3.55;;;16.50;98.30;;;;;;5029183;28;20418;-70
2024/03/15 10:07:38;;;;;;;9.18;5.25;;;16.60;98.30;;;;;;5029164;28;20103;-70
2024/03/15 10:10:05;;;;;;;5.35;4.20;;;16.60;98.20;;;;;;5028746;28;20025;-70
2024/03/15 10:12:33;;;;;;;5.70;4.13;;;16.60;98.20;;;;;;5027398;28;20096;-70
2024/03/15 10:14:59;;;;;;;4.32;3.45;;;16.70;98.10;;;;;;5028660;28;20252;-72
2024/03/15 10:17:24;;;;;;;7.68;5.05;;;16.70;98.20;;;;;;5027909;28;20112;-72
2024/03/15 10:19:50;;;;;;;7.75;4.82;;;16.70;98.30;;;;;;5027072;28;20112;-72
2024/03/15 10:22:15;;;;;;;9.73;4.63;;;16.70;98.10;;;;;;5028030;28;20029;-72
2024/03/15 10:24:41;;;;;;;5.15;4.15;;;16.60;98.10;;;;;;5028736;28;20045;-72
2024/03/15 10:27:12;;;;;;;5.18;4.18;;;16.50;98.20;;;;;;5027557;28;20379;-72
2024/03/15 10:29:38;;;;;;;6.43;4.32;;;16.40;98.30;;;;;;5028059;28;20041;-72
2024/03/15 10:32:04;;;;;;;4.57;4.03;;;16.40;98.50;;;;;;5026613;28;20057;-73
2024/03/15 10:34:30;;;;;;;5.85;3.75;;;16.30;98.50;;;;;;5027257;28;20034;-73
2024/03/15 10:36:55;;;;;;;7.10;4.38;;;16.20;98.60;;;;;;5027946;28;20021;-73
2024/03/15 10:39:23;;;;;;;6.85;4.13;;;16.20;98.80;;;;;;5026838;28;20032;-73
2024/03/15 10:41:49;;;;;;;8.70;5.18;;;16.10;98.90;;;;;;5028180;28;20033;-73
2024/03/15 10:44:15;;;;;;;7.15;4.70;;;16.10;99.00;;;;;;5025621;28;20025;-72
2024/03/15 10:46:41;;;;;;;5.93;4.88;;;16.00;99.10;;;;;;5029027;28;20103;-72
2024/03/15 10:49:14;;;;;;;7.70;5.50;;;16.00;99.20;;;;;;5027080;28;20484;-72
2024/03/15 10:51:41;;;;;;;8.75;5.38;;;15.90;99.60;;;;;;5028194;28;20079;-72
2024/03/15 10:54:15;;;;;;;8.02;5.60;;;15.90;99.90;;;;;;5028050;28;20022;-72
2024/03/15 10:56:44;;;;;;;10.60;6.22;;;15.90;99.90;;;;;;5025200;28;20087;-72
2024/03/15 10:59:10;;;;;;;10.23;6.00;;;15.90;99.90;;;;;;5026195;28;20026;-72
2024/03/15 11:01:37;;;;;;;6.93;4.82;;;16.00;99.90;;;;;;5028182;28;20032;-72
2024/03/15 11:04:03;;;;;;;8.52;5.18;;;16.20;99.90;;;;;;5027671;28;20041;-72
2024/03/15 11:06:39;;;;;;;6.45;4.20;;;16.30;99.60;;;;;;5028274;28;20427;-72
2024/03/15 11:09:21;;;;;;;;;;;16.40;99.20;;;;;;5027637;28;20025;-72
2024/03/15 11:12:03;;;;;;;6.57;4.35;;;16.40;99.10;;;;;;5027863;28;19909;-73
2024/03/15 11:14:33;;;;;;;8.30;4.25;;;16.40;99.10;;;;;;5027498;28;20030;-72
2024/03/15 11:17:05;;;;;;;7.63;4.72;;;16.40;99.10;;;;;;5028020;28;20100;-72
2024/03/15 11:19:47;;;;;;;10.63;5.15;;;16.40;99.10;;;;;;5027525;28;20113;-72
2024/03/15 11:22:17;;;;;;;9.18;5.43;;;16.50;99.10;;;;;;5027191;28;20033;-73
2024/03/15 11:24:42;;;;;;;9.60;5.88;;;16.50;99.10;;;;;;5027371;28;20036;-73
2024/03/15 11:27:13;;;;;;;6.07;5.47;;;16.60;99.20;;;;;;5026846;28;20034;-72
2024/03/15 11:29:40;;;;;;;8.25;5.28;;;16.60;99.20;;;;;;5028195;28;20399;-72
2024/03/15 11:32:13;;;;;;;6.78;4.70;;;16.60;99.20;;;;;;5026820;28;20488;-73
2024/03/15 11:34:41;;;;;;;5.30;4.80;;;16.50;99.30;;;;;;5027977;28;20427;-72
2024/03/15 11:37:13;;;;;;;7.72;5.18;;;16.50;99.40;;;;;;5027023;28;20411;-72
2024/03/15 11:39:38;;;;;;;6.78;5.03;;;16.40;99.40;;;;;;5027635;28;20112;-72
2024/03/15 11:42:06;;;;;;;8.88;3.83;;;16.40;99.60;;;;;;5026772;28;20108;-73
2024/03/15 11:44:32;;;;;;;5.30;4.80;;;16.30;99.60;;;;;;5027456;28;20159;-73
2024/03/15 11:46:58;;;;;;;7.88;4.47;;;16.40;99.70;;;;;;5025047;28;20128;-72
2024/03/15 11:49:24;;;;;;;8.45;4.45;;;16.40;99.70;;;;;;5026438;28;20073;-72
2024/03/15 11:51:59;;;;;;;7.20;4.18;;;16.40;99.60;;;;;;5027431;28;20037;-74
2024/03/15 11:54:27;;;;;;;10.40;4.55;;;16.50;99.70;;;;;;5027352;28;20496;-74
2024/03/15 11:56:59;;;;;;;9.20;4.53;;;16.50;99.40;;;;;;5025778;28;20400;-73
2024/03/15 11:59:28;;;;;;;6.32;4.53;;;16.60;99.50;;;;;;5026844;28;20484;-74
2024/03/15 12:01:54;;;;;;;6.80;4.78;;;16.70;99.40;;;;;;5026822;28;20025;-73
2024/03/15 12:04:24;;;;;;;6.30;5.15;;;17.00;99.20;;;;;;5026201;28;20740;-74
2024/03/15 12:06:50;;;;;;;7.43;4.13;;;17.10;98.90;;;;;;5028896;28;20023;-73
2024/03/15 12:09:16;;;;;;;6.40;4.57;;;17.30;98.50;;;;;;5028711;28;20390;-73
2024/03/15 12:11:45;;;;;;;6.63;3.95;;;17.40;98.40;;;;;;5031019;28;20095;-73
2024/03/15 12:14:13;;;;;;;4.95;3.92;;;17.50;98.10;;;;;;5029731;28;20028;-73
2024/03/15 12:16:45;;;;;;;7.32;4.00;;;17.50;97.80;;;;;;5031665;28;20017;-74
2024/03/15 12:19:15;;;;;;;9.70;3.88;;;17.40;97.90;;;;;;5030566;28;20422;-73
2024/03/15 12:21:41;;;;;;;6.50;4.60;;;17.40;98.00;;;;;;5029262;28;20036;-73
2024/03/15 12:24:07;;;;;;;4.88;3.55;;;17.30;98.20;;;;;;5029251;28;20029;-73
2024/03/15 12:26:33;;;;;;;4.50;4.07;;;17.20;98.40;;;;;;5030479;28;20551;-73
2024/03/15 12:28:59;;;;;;;6.07;3.15;;;17.30;98.40;;;;;;5026217;28;20105;-73
2024/03/15 12:31:25;;;;;;;10.18;4.22;;;17.30;98.50;;;;;;5028940;28;20025;-72
2024/03/15 12:33:54;;;;;;;5.32;3.88;;;17.40;98.10;;;;;;5028640;28;20044;-73
2024/03/15 12:36:19;;;;;;;9.95;4.22;;;17.40;98.20;;;;;;5030127;28;20531;-73
2024/03/15 12:38:45;;;;;;;6.13;3.70;;;17.50;98.00;;;;;;5029848;28;20029;-72
2024/03/15 12:41:11;;;;;;;6.35;4.70;;;17.40;98.00;;;;;;5030539;28;20021;-72
2024/03/15 12:43:36;;;;;;;7.78;4.05;;;17.40;98.00;;;;;;5030816;28;20021;-73
2024/03/15 12:46:09;;;;;;;9.40;4.22;;;17.40;98.10;;;;;;5029853;28;20083;-74
2024/03/15 12:48:35;;;;;;;7.13;4.13;;;17.40;98.20;;;;;;5029471;28;20698;-73
2024/03/15 12:51:02;;;;;;;6.63;3.90;;;17.40;98.20;;;;;;5030459;28;20021;-73
2024/03/15 12:53:27;;;;;;;8.32;4.15;;;17.40;98.30;;;;;;5030823;28;20426;-73
2024/03/15 12:55:52;;;;;;;8.73;5.15;;;17.40;98.30;;;;;;5030076;28;20021;-72
2024/03/15 12:58:18;;;;;;;5.38;3.95;;;17.30;98.30;;;;;;5027402;28;20014;-73
2024/03/15 13:00:44;;;;;;;2.75;2.22;;;17.30;98.20;;;;;;5030088;28;20103;-72